This is the latest recevied weather packets stored in our database for station/object KE6JJJ-1. If no packets are shown the sender has not sent any weather packets the latest 10 day(s).
| Time | Temp. | Humidity | Pressure | Rain* | Wind** | Luminosity | Snow |
|---|---|---|---|---|---|---|---|
| 1777871103 | 13.33° C | 84% | 1014.1 hPa | 0 mm | - | 0 W/m² | - |
| 1777869303 | 13.33° C | 83% | 1013.9 hPa | 0 mm | - | 0 W/m² | - |
| 1777867503 | 13.89° C | 82% | 1013.6 hPa | 0 mm | - | 0 W/m² | - |
| 1777865703 | 13.89° C | 80% | 1013.2 hPa | 0 mm | - | 0 W/m² | - |
| 1777863903 | 14.44° C | 78% | 1013.1 hPa | 0 mm | - | 0 W/m² | - |
| 1777862103 | 14.44° C | 76% | 1012.8 hPa | 0 mm | - | 41 W/m² | - |
| 1777860303 | 15° C | 75% | 1012.8 hPa | 0 mm | - | 75 W/m² | - |
| 1777858503 | 16.11° C | 73% | 1012.9 hPa | 0 mm | - | 179 W/m² | - |
| 1777856703 | 15.56° C | 74% | 1012.9 hPa | 0 mm | - | 476 W/m² | - |
| 1777854903 | 16.11° C | 73% | 1013 hPa | 0 mm | - | 206 W/m² | - |
| 1777853103 | 16.67° C | 70% | 1012.8 hPa | 0 mm | - | 267 W/m² | - |
| 1777851303 | 16.67° C | 71% | 1012.6 hPa | 0 mm | - | 311 W/m² | - |
| 1777849503 | 16.67° C | 72% | 1012.7 hPa | 0 mm | - | 348 W/m² | - |
| 1777847703 | 16.67° C | 72% | 1013.1 hPa | 0 mm | - | 296 W/m² | - |
| 1777845904 | 17.22° C | 68% | 1013.1 hPa | 0 mm | - | 371 W/m² | - |
| 1777844472 | 17.78° C | 66% | 1013.1 hPa | 0 mm | - | 422 W/m² | - |
| 1777844103 | 17.78° C | 66% | 1013.1 hPa | 0 mm | - | 422 W/m² | - |
| 1777842335 | 18.33° C | 66% | 1013 hPa | 0 mm | - | 650 W/m² | - |
| 1777842303 | 18.33° C | 66% | 1013 hPa | 0 mm | - | 650 W/m² | - |
| 1777840503 | 17.78° C | 66% | 1013 hPa | 0 mm | - | 455 W/m² | - |
| 1777838704 | 17.22° C | 68% | 1013.2 hPa | 0 mm | - | 410 W/m² | - |
| 1777836904 | 17.22° C | 68% | 1013.3 hPa | 0 mm | - | 434 W/m² | - |
| 1777835103 | 17.78° C | 66% | 1013.2 hPa | 0 mm | - | 503 W/m² | - |
| 1777833303 | 17.22° C | 69% | 1013.2 hPa | 0 mm | - | 462 W/m² | - |
| 1777831503 | 16.67° C | 70% | 1013.1 hPa | 0 mm | - | 744 W/m² | - |
* Rain latest hour (hover to see other rain measurements)
** Current wind speed in m/s (hover to see current wind gust speed)